Izumi — JD3743 — position and weather

sailwx.info

Track history (hours):
 
Tides and Currents Weather Stations Pressure Air Temp Water Temp Dewpoint Dewpoint Depression Visibility Wind Speed Wind Dir Waves Ship Positions

Izumi

Last reported at 2017-Sep-21 10:13 UTC. Time now 2017-Sep-22 22:35 UTC.
Position N 34°33' E 134°46'.

Length 195 m; draft 6.3 m.

Type: Passenger vessel. MMSI: 431006014.

Date/timePositionNaut miles runAvg speedWind from/ knotsBaromVisibWave heightAir tempDewpointWater temp
2017-Sep-21 10:13N 34°33' E 134°46'523.6
2017-Sep-21 10:01N 34°35' E 134°51'1121.8
2017-Sep-21 09:30N 34°36' E 135°04'1121.3
2017-Sep-21 09:00N 34°34' E 135°17'612.4
2017-Sep-21 08:30N 34°31' E 135°24'0 0.0
2017-Sep-21 08:00N 34°31' E 135°24'0 0.0
2017-Sep-21 07:30N 34°31' E 135°24'0 0.0
2017-Sep-21 07:00N 34°31' E 135°24'0 0.0
2017-Sep-21 06:30N 34°31' E 135°24'0 0.0
2017-Sep-21 05:35N 34°31' E 135°24'0 0.0
2017-Sep-21 05:30N 34°31' E 135°24'0 0.0
2017-Sep-21 05:00N 34°31' E 135°24'0 0.0
2017-Sep-21 04:30N 34°31' E 135°24'0 0.0
2017-Sep-21 04:00N 34°31' E 135°24'0 0.0
2017-Sep-21 03:30N 34°31' E 135°24'0 0.0
2017-Sep-21 03:00N 34°31' E 135°24'0 0.0
2017-Sep-21 02:30N 34°31' E 135°24'0 0.0
2017-Sep-21 02:00N 34°31' E 135°24'0 0.0
2017-Sep-21 01:30N 34°31' E 135°24'0 0.0
2017-Sep-21 01:00N 34°31' E 135°24'0 0.0
2017-Sep-21 00:30N 34°31' E 135°24'0 0.0
2017-Sep-20 23:59N 34°31' E 135°24'0 0.0
2017-Sep-20 23:30N 34°31' E 135°24'0 0.0
2017-Sep-20 23:00N 34°31' E 135°24'0 0.0
2017-Sep-20 22:30N 34°31' E 135°24'0 0.0
2017-Sep-20 22:00N 34°31' E 135°24'0 0.0
2017-Sep-20 21:30N 34°31' E 135°24'0 0.0
2017-Sep-20 21:00N 34°31' E 135°24'1 2.6
2017-Sep-20 20:30N 34°32' E 135°23'714.9
2017-Sep-20 20:00N 34°34' E 135°14'815.7
2017-Sep-20 19:30N 34°34' E 135°04'917.3
2017-Sep-20 19:00N 34°35' E 134°54'8 0.2
2017-Sep-19 10:10N 34°33' E 134°45'423.9
2017-Sep-19 10:00N 34°34' E 134°49'1223.3
2017-Sep-19 09:30N 34°36' E 135°03'1020.3
2017-Sep-19 09:01N 34°35' E 135°15'815.9
2017-Sep-19 08:30N 34°31' E 135°24'0 0.1
2017-Sep-19 08:00N 34°31' E 135°24'0 0.0
2017-Sep-19 07:29N 34°31' E 135°24'0 0.0
2017-Sep-19 07:00N 34°31' E 135°24'0 0.0
2017-Sep-19 06:30N 34°31' E 135°24'0 0.0
2017-Sep-19 06:00N 34°31' E 135°24'0 0.0
2017-Sep-19 05:29N 34°31' E 135°24'0 0.0
2017-Sep-19 05:00N 34°31' E 135°24'0 0.0
2017-Sep-19 04:30N 34°31' E 135°24'0 0.0
2017-Sep-19 04:00N 34°31' E 135°24'0 0.0
2017-Sep-19 03:30N 34°31' E 135°24'0 0.0
2017-Sep-19 03:00N 34°31' E 135°24'0 0.0
2017-Sep-19 02:30N 34°31' E 135°24'0 0.0
2017-Sep-19 02:00N 34°31' E 135°24'0 0.0
2017-Sep-19 01:30N 34°31' E 135°24'0 0.0
2017-Sep-19 01:00N 34°31' E 135°24'0 0.0
2017-Sep-18 22:21N 34°31' E 135°24'0 0.0
2017-Sep-18 21:44N 34°31' E 135°24'0 0.0
2017-Sep-18 21:23N 34°31' E 135°24'0 0.0
2017-Sep-18 20:59N 34°31' E 135°24'2 3.2
2017-Sep-18 20:30N 34°32' E 135°23'816.5
2017-Sep-18 20:00N 34°34' E 135°13'1019.4
2017-Sep-18 19:30N 34°37' E 135°02'1019.2
2017-Sep-18 18:58N 34°33' E 134°50'1 0.0
2017-Sep-17 02:24N 34°34' E 134°50'719.1
2017-Sep-17 02:00N 34°37' E 134°58'917.8
2017-Sep-17 01:30N 34°36' E 135°09'1020.9
2017-Sep-17 01:00N 34°34' E 135°22'3 6.2
2017-Sep-17 00:30N 34°31' E 135°24'0 0.0
2017-Sep-17 00:00N 34°31' E 135°24'0 0.0
2017-Sep-16 23:30N 34°31' E 135°24'0 0.0
2017-Sep-16 23:00N 34°31' E 135°24'0 0.0
2017-Sep-16 22:30N 34°31' E 135°24'0 0.0
2017-Sep-16 21:59N 34°31' E 135°24'0 0.0
2017-Sep-16 21:29N 34°31' E 135°24'0 0.0
2017-Sep-16 20:57N 34°31' E 135°24'2 3.9
2017-Sep-16 20:30N 34°33' E 135°23'918.9
2017-Sep-16 20:00N 34°35' E 135°12'1020.4
2017-Sep-16 19:30N 34°37' E 134°60'10 0.3
2017-Sep-15 10:10N 34°34' E 134°48'423.3
2017-Sep-15 09:59N 34°35' E 134°53'1020.5
2017-Sep-15 09:30N 34°36' E 135°05'1121.6
2017-Sep-15 09:00N 34°33' E 135°18'510.3
2017-Sep-15 08:30N 34°31' E 135°24'0 0.0
2017-Sep-15 07:55N 34°31' E 135°24'0 0.0
2017-Sep-15 07:30N 34°31' E 135°24'0 0.0
2017-Sep-15 07:00N 34°31' E 135°24'0 0.0
2017-Sep-15 06:30N 34°31' E 135°24'0 0.0
2017-Sep-15 05:47N 34°31' E 135°24'0 0.0
2017-Sep-15 05:30N 34°31' E 135°24'0 0.0
2017-Sep-15 05:00N 34°31' E 135°24'0 0.0
2017-Sep-15 04:30N 34°31' E 135°24'0 0.0
2017-Sep-15 04:00N 34°31' E 135°24'0 0.0
2017-Sep-15 03:30N 34°31' E 135°24'0 0.0
2017-Sep-15 03:00N 34°31' E 135°24'0 0.0
2017-Sep-15 02:30N 34°31' E 135°24'0 0.0
2017-Sep-15 01:56N 34°31' E 135°24'0 0.0
2017-Sep-15 00:07N 34°31' E 135°24'0 0.0
2017-Sep-14 23:58N 34°31' E 135°24'0 0.0
2017-Sep-14 23:30N 34°31' E 135°24'0 0.0
2017-Sep-14 23:00N 34°31' E 135°24'0 0.0
2017-Sep-14 22:30N 34°31' E 135°24'0 0.0
2017-Sep-14 22:00N 34°31' E 135°24'0 0.0
2017-Sep-14 21:15N 34°31' E 135°24'0 0.0
2017-Sep-14 20:58N 34°31' E 135°24'4 7.9
2017-Sep-14 20:30N 34°33' E 135°20'1019.6
2017-Sep-14 20:00N 34°34' E 135°08'918.2
2017-Sep-14 19:30N 34°37' E 134°57'12 0.4
2017-Sep-13 10:19N 34°32' E 134°44'722.1
2017-Sep-13 10:00N 34°35' E 134°51'1019.1
2017-Sep-13 09:30N 34°36' E 135°03'1021.1
2017-Sep-13 09:01N 34°36' E 135°16'816.1
2017-Sep-13 08:30N 34°31' E 135°24'0 0.1
2017-Sep-13 08:00N 34°31' E 135°24'0 0.0
2017-Sep-13 07:30N 34°31' E 135°24'0 0.0
2017-Sep-13 06:28N 34°31' E 135°24'0 0.0
2017-Sep-13 05:40N 34°31' E 135°24'0 0.0
2017-Sep-13 05:28N 34°31' E 135°24'0 0.0
2017-Sep-13 05:00N 34°31' E 135°24'0 0.0
2017-Sep-13 04:27N 34°31' E 135°24'0 0.0
2017-Sep-13 03:59N 34°31' E 135°24'0 0.0
2017-Sep-13 03:30N 34°31' E 135°24'0 0.0
2017-Sep-13 03:00N 34°31' E 135°24'0 0.0
2017-Sep-13 02:30N 34°31' E 135°24'0 0.0
2017-Sep-13 02:00N 34°31' E 135°24'0 0.0
2017-Sep-13 01:30N 34°31' E 135°24'0 0.0
2017-Sep-13 01:00N 34°31' E 135°24'0 0.0
2017-Sep-13 00:30N 34°31' E 135°24'0 0.0
2017-Sep-13 00:00N 34°31' E 135°24'0 0.0
2017-Sep-12 23:30N 34°31' E 135°24'0 0.0
2017-Sep-12 22:37N 34°31' E 135°24'0 0.0
2017-Sep-12 21:52N 34°31' E 135°24'0 0.0
2017-Sep-12 21:21N 34°31' E 135°24'0 0.0
2017-Sep-12 20:56N 34°31' E 135°24'1 3.4
2017-Sep-12 20:30N 34°32' E 135°23'917.4
2017-Sep-12 20:00N 34°34' E 135°12'1020.3
2017-Sep-12 19:30N 34°37' E 135°01'1121.8
2017-Sep-12 19:00N 34°33' E 134°48'2 0.1
2017-Sep-11 10:13N 34°33' E 134°45'  
Track history (hours):
 
Tides and Currents Weather Stations Pressure Air Temp Water Temp Dewpoint Dewpoint Depression Visibility Wind Speed Wind Dir Waves Ship Positions

Izumi

Last reported at 2017-Sep-21 10:13 UTC. Time now 2017-Sep-22 22:35 UTC.
Position N 34°33' E 134°46'.

Length 195 m; draft 6.3 m.

Type: Passenger vessel. MMSI: 431006014.

Date/timePositionNaut miles runAvg speedWind from/ knotsBaromVisibWave heightAir tempDewpointWater temp
2017-Sep-21 10:13N 34°33' E 134°46'523.6
2017-Sep-21 10:01N 34°35' E 134°51'1121.8
2017-Sep-21 09:30N 34°36' E 135°04'1121.3
2017-Sep-21 09:00N 34°34' E 135°17'612.4
2017-Sep-21 08:30N 34°31' E 135°24'0 0.0
2017-Sep-21 08:00N 34°31' E 135°24'0 0.0
2017-Sep-21 07:30N 34°31' E 135°24'0 0.0
2017-Sep-21 07:00N 34°31' E 135°24'0 0.0
2017-Sep-21 06:30N 34°31' E 135°24'0 0.0
2017-Sep-21 05:35N 34°31' E 135°24'0 0.0
2017-Sep-21 05:30N 34°31' E 135°24'0 0.0
2017-Sep-21 05:00N 34°31' E 135°24'0 0.0
2017-Sep-21 04:30N 34°31' E 135°24'0 0.0
2017-Sep-21 04:00N 34°31' E 135°24'0 0.0
2017-Sep-21 03:30N 34°31' E 135°24'0 0.0
2017-Sep-21 03:00N 34°31' E 135°24'0 0.0
2017-Sep-21 02:30N 34°31' E 135°24'0 0.0
2017-Sep-21 02:00N 34°31' E 135°24'0 0.0
2017-Sep-21 01:30N 34°31' E 135°24'0 0.0
2017-Sep-21 01:00N 34°31' E 135°24'0 0.0
2017-Sep-21 00:30N 34°31' E 135°24'0 0.0
2017-Sep-20 23:59N 34°31' E 135°24'0 0.0
2017-Sep-20 23:30N 34°31' E 135°24'0 0.0
2017-Sep-20 23:00N 34°31' E 135°24'0 0.0
2017-Sep-20 22:30N 34°31' E 135°24'0 0.0
2017-Sep-20 22:00N 34°31' E 135°24'0 0.0
2017-Sep-20 21:30N 34°31' E 135°24'0 0.0
2017-Sep-20 21:00N 34°31' E 135°24'1 2.6
2017-Sep-20 20:30N 34°32' E 135°23'714.9
2017-Sep-20 20:00N 34°34' E 135°14'815.7
2017-Sep-20 19:30N 34°34' E 135°04'917.3
2017-Sep-20 19:00N 34°35' E 134°54'8 0.2
2017-Sep-19 10:10N 34°33' E 134°45'423.9
2017-Sep-19 10:00N 34°34' E 134°49'1223.3
2017-Sep-19 09:30N 34°36' E 135°03'1020.3
2017-Sep-19 09:01N 34°35' E 135°15'815.9
2017-Sep-19 08:30N 34°31' E 135°24'0 0.1
2017-Sep-19 08:00N 34°31' E 135°24'0 0.0
2017-Sep-19 07:29N 34°31' E 135°24'0 0.0
2017-Sep-19 07:00N 34°31' E 135°24'0 0.0
2017-Sep-19 06:30N 34°31' E 135°24'0 0.0
2017-Sep-19 06:00N 34°31' E 135°24'0 0.0
2017-Sep-19 05:29N 34°31' E 135°24'0 0.0
2017-Sep-19 05:00N 34°31' E 135°24'0 0.0
2017-Sep-19 04:30N 34°31' E 135°24'0 0.0
2017-Sep-19 04:00N 34°31' E 135°24'0 0.0
2017-Sep-19 03:30N 34°31' E 135°24'0 0.0
2017-Sep-19 03:00N 34°31' E 135°24'0 0.0
2017-Sep-19 02:30N 34°31' E 135°24'0 0.0
2017-Sep-19 02:00N 34°31' E 135°24'0 0.0
2017-Sep-19 01:30N 34°31' E 135°24'0 0.0
2017-Sep-19 01:00N 34°31' E 135°24'0 0.0
2017-Sep-18 22:21N 34°31' E 135°24'0 0.0
2017-Sep-18 21:44N 34°31' E 135°24'0 0.0
2017-Sep-18 21:23N 34°31' E 135°24'0 0.0
2017-Sep-18 20:59N 34°31' E 135°24'2 3.2
2017-Sep-18 20:30N 34°32' E 135°23'816.5
2017-Sep-18 20:00N 34°34' E 135°13'1019.4
2017-Sep-18 19:30N 34°37' E 135°02'1019.2
2017-Sep-18 18:58N 34°33' E 134°50'1 0.0
2017-Sep-17 02:24N 34°34' E 134°50'719.1
2017-Sep-17 02:00N 34°37' E 134°58'917.8
2017-Sep-17 01:30N 34°36' E 135°09'1020.9
2017-Sep-17 01:00N 34°34' E 135°22'3 6.2
2017-Sep-17 00:30N 34°31' E 135°24'0 0.0
2017-Sep-17 00:00N 34°31' E 135°24'0 0.0
2017-Sep-16 23:30N 34°31' E 135°24'0 0.0
2017-Sep-16 23:00N 34°31' E 135°24'0 0.0
2017-Sep-16 22:30N 34°31' E 135°24'0 0.0
2017-Sep-16 21:59N 34°31' E 135°24'0 0.0
2017-Sep-16 21:29N 34°31' E 135°24'0 0.0
2017-Sep-16 20:57N 34°31' E 135°24'2 3.9
2017-Sep-16 20:30N 34°33' E 135°23'918.9
2017-Sep-16 20:00N 34°35' E 135°12'1020.4
2017-Sep-16 19:30N 34°37' E 134°60'10 0.3
2017-Sep-15 10:10N 34°34' E 134°48'423.3
2017-Sep-15 09:59N 34°35' E 134°53'1020.5
2017-Sep-15 09:30N 34°36' E 135°05'1121.6
2017-Sep-15 09:00N 34°33' E 135°18'510.3
2017-Sep-15 08:30N 34°31' E 135°24'0 0.0
2017-Sep-15 07:55N 34°31' E 135°24'0 0.0
2017-Sep-15 07:30N 34°31' E 135°24'0 0.0
2017-Sep-15 07:00N 34°31' E 135°24'0 0.0
2017-Sep-15 06:30N 34°31' E 135°24'0 0.0
2017-Sep-15 05:47N 34°31' E 135°24'0 0.0
2017-Sep-15 05:30N 34°31' E 135°24'0 0.0
2017-Sep-15 05:00N 34°31' E 135°24'0 0.0
2017-Sep-15 04:30N 34°31' E 135°24'0 0.0
2017-Sep-15 04:00N 34°31' E 135°24'0 0.0
2017-Sep-15 03:30N 34°31' E 135°24'0 0.0
2017-Sep-15 03:00N 34°31' E 135°24'0 0.0
2017-Sep-15 02:30N 34°31' E 135°24'0 0.0
2017-Sep-15 01:56N 34°31' E 135°24'0 0.0
2017-Sep-15 00:07N 34°31' E 135°24'0 0.0
2017-Sep-14 23:58N 34°31' E 135°24'0 0.0
2017-Sep-14 23:30N 34°31' E 135°24'0 0.0
2017-Sep-14 23:00N 34°31' E 135°24'0 0.0
2017-Sep-14 22:30N 34°31' E 135°24'0 0.0
2017-Sep-14 22:00N 34°31' E 135°24'0 0.0
2017-Sep-14 21:15N 34°31' E 135°24'0 0.0
2017-Sep-14 20:58N 34°31' E 135°24'4 7.9
2017-Sep-14 20:30N 34°33' E 135°20'1019.6
2017-Sep-14 20:00N 34°34' E 135°08'918.2
2017-Sep-14 19:30N 34°37' E 134°57'12 0.4
2017-Sep-13 10:19N 34°32' E 134°44'722.1
2017-Sep-13 10:00N 34°35' E 134°51'1019.1
2017-Sep-13 09:30N 34°36' E 135°03'1021.1
2017-Sep-13 09:01N 34°36' E 135°16'816.1
2017-Sep-13 08:30N 34°31' E 135°24'0 0.1
2017-Sep-13 08:00N 34°31' E 135°24'0 0.0
2017-Sep-13 07:30N 34°31' E 135°24'0 0.0
2017-Sep-13 06:28N 34°31' E 135°24'0 0.0
2017-Sep-13 05:40N 34°31' E 135°24'0 0.0
2017-Sep-13 05:28N 34°31' E 135°24'0 0.0
2017-Sep-13 05:00N 34°31' E 135°24'0 0.0
2017-Sep-13 04:27N 34°31' E 135°24'0 0.0
2017-Sep-13 03:59N 34°31' E 135°24'0 0.0
2017-Sep-13 03:30N 34°31' E 135°24'0 0.0
2017-Sep-13 03:00N 34°31' E 135°24'0 0.0
2017-Sep-13 02:30N 34°31' E 135°24'0 0.0
2017-Sep-13 02:00N 34°31' E 135°24'0 0.0
2017-Sep-13 01:30N 34°31' E 135°24'0 0.0
2017-Sep-13 01:00N 34°31' E 135°24'0 0.0
2017-Sep-13 00:30N 34°31' E 135°24'0 0.0
2017-Sep-13 00:00N 34°31' E 135°24'0 0.0
2017-Sep-12 23:30N 34°31' E 135°24'0 0.0
2017-Sep-12 22:37N 34°31' E 135°24'0 0.0
2017-Sep-12 21:52N 34°31' E 135°24'0 0.0
2017-Sep-12 21:21N 34°31' E 135°24'0 0.0
2017-Sep-12 20:56N 34°31' E 135°24'1 3.4
2017-Sep-12 20:30N 34°32' E 135°23'917.4
2017-Sep-12 20:00N 34°34' E 135°12'1020.3
2017-Sep-12 19:30N 34°37' E 135°01'1121.8
2017-Sep-12 19:00N 34°33' E 134°48'2 0.1
2017-Sep-11 10:13N 34°33' E 134°45'  

Dump ship's entire track history